Time;durP1;ratioP1;P1;durP2;ratioP2;P2;SDS_P1;SDS_P2;PMS_P1;PMS_P2;Temp;Humidity;BMP_temperature;BMP_pressure;BME280_temperature;BME280_humidity;BME280_pressure;Samples;Min_cycle;Max_cycle;Signal;HPM_P1;HPM_P2
2022/05/04 00:00:28;;;;;;;0.63;0.63;;;8.60;99.90;;;;;;5054523;28;20741;-75
2022/05/04 00:02:53;;;;;;;0.70;0.70;;;8.60;99.90;;;;;;5054976;28;20198;-74
2022/05/04 00:05:19;;;;;;;0.60;0.60;;;8.50;99.90;;;;;;5052097;28;20178;-74
2022/05/04 00:07:45;;;;;;;0.70;0.70;;;8.40;99.90;;;;;;5052444;28;20194;-74
2022/05/04 00:10:12;;;;;;;0.70;0.70;;;8.50;99.90;;;;;;5051764;28;20494;-74
2022/05/04 00:12:37;;;;;;;0.60;0.60;;;8.50;99.90;;;;;;5052051;28;20174;-74
2022/05/04 00:15:04;;;;;;;0.70;0.70;;;8.40;99.90;;;;;;5055200;28;20182;-74
2022/05/04 00:17:30;;;;;;;0.60;0.60;;;8.30;99.90;;;;;;5055013;28;20238;-74
2022/05/04 00:19:55;;;;;;;0.80;0.80;;;8.30;99.90;;;;;;5054731;28;20233;-74
2022/05/04 00:22:22;;;;;;;0.70;0.70;;;8.30;99.90;;;;;;5054808;28;20191;-74
2022/05/04 00:24:48;;;;;;;0.60;0.60;;;8.40;99.90;;;;;;5054602;28;20193;-76
2022/05/04 00:27:15;;;;;;;0.70;0.70;;;8.30;99.90;;;;;;5054547;28;20607;-75
2022/05/04 00:29:44;;;;;;;0.70;0.70;;;8.40;99.90;;;;;;5053030;28;20309;-74
2022/05/04 00:32:11;;;;;;;0.60;0.60;;;8.40;99.90;;;;;;5051550;28;20201;-74
2022/05/04 00:34:37;;;;;;;0.70;0.70;;;8.50;99.90;;;;;;5056199;28;20175;-75
2022/05/04 00:37:03;;;;;;;0.70;0.70;;;8.40;99.90;;;;;;5058055;28;20218;-76
2022/05/04 00:39:29;;;;;;;0.60;0.60;;;8.50;99.90;;;;;;5055570;28;20198;-74
2022/05/04 00:42:04;;;;;;;0.67;0.67;;;8.60;99.90;;;;;;5055812;28;20202;-74
2022/05/04 00:44:30;;;;;;;0.60;0.60;;;8.60;99.90;;;;;;5053447;28;20274;-74
2022/05/04 00:46:55;;;;;;;0.70;0.70;;;8.50;99.90;;;;;;5053853;28;20206;-74
2022/05/04 00:49:22;;;;;;;0.70;0.70;;;8.40;99.90;;;;;;5052794;28;20174;-74
2022/05/04 00:51:47;;;;;;;0.63;0.63;;;8.40;99.90;;;;;;5052777;28;20187;-75
2022/05/04 00:54:13;;;;;;;0.60;0.60;;;8.30;99.90;;;;;;5052924;28;20249;-74
2022/05/04 00:56:38;;;;;;;0.70;0.70;;;8.30;99.90;;;;;;5052732;28;20249;-74
2022/05/04 00:59:04;;;;;;;0.70;0.70;;;8.20;99.90;;;;;;5053126;28;20175;-74
2022/05/04 01:01:31;;;;;;;0.70;0.70;;;8.20;99.90;;;;;;5053890;28;20252;-74
2022/05/04 01:03:59;;;;;;;0.70;0.70;;;8.10;99.90;;;;;;5054751;28;20228;-74
2022/05/04 01:06:25;;;;;;;0.80;0.80;;;8.20;99.90;;;;;;5055418;28;20206;-75
2022/05/04 01:08:52;;;;;;;0.70;0.70;;;8.10;99.90;;;;;;5055094;28;20171;-75
2022/05/04 01:11:18;;;;;;;0.60;0.60;;;8.10;99.90;;;;;;5055062;28;20297;-74
2022/05/04 01:14:15;;;;;;;0.80;0.80;;;8.10;99.90;;;;;;5051900;28;20182;-75
2022/05/04 01:16:43;;;;;;;0.70;0.70;;;8.10;99.90;;;;;;5054465;28;20211;-74
2022/05/04 01:19:12;;;;;;;0.70;0.70;;;8.10;99.90;;;;;;5053728;28;20183;-74
2022/05/04 01:21:37;;;;;;;0.70;0.70;;;8.20;99.90;;;;;;5054318;28;20667;-75
2022/05/04 01:24:04;;;;;;;0.70;0.70;;;8.20;99.90;;;;;;5054979;28;20267;-74
2022/05/04 01:26:29;;;;;;;0.70;0.70;;;8.20;99.90;;;;;;5055348;28;20251;-74
2022/05/04 01:28:55;;;;;;;0.70;0.70;;;8.30;99.90;;;;;;5052665;28;20186;-75
2022/05/04 01:31:22;;;;;;;0.63;0.63;;;8.40;99.90;;;;;;5056830;28;20195;-74
2022/05/04 01:33:47;;;;;;;0.60;0.60;;;8.40;99.90;;;;;;5055780;28;20175;-74
2022/05/04 01:36:13;;;;;;;0.70;0.70;;;8.50;99.90;;;;;;5055995;28;20311;-74
2022/05/04 01:38:38;;;;;;;0.70;0.70;;;8.50;99.90;;;;;;5055630;28;20179;-74
2022/05/04 01:41:04;;;;;;;0.80;0.80;;;8.50;99.90;;;;;;5054361;28;20202;-73
2022/05/04 01:43:30;;;;;;;0.70;0.70;;;8.50;99.90;;;;;;5058880;28;20171;-73
2022/05/04 01:45:56;;;;;;;0.70;0.70;;;8.50;99.90;;;;;;5057470;28;20209;-74
2022/05/04 01:48:23;;;;;;;0.70;0.70;;;8.50;99.90;;;;;;5057549;28;20171;-74
2022/05/04 01:50:49;;;;;;;0.70;0.70;;;8.40;99.90;;;;;;5056131;28;20205;-75
2022/05/04 01:53:14;;;;;;;0.70;0.70;;;8.40;99.90;;;;;;5056346;28;20179;-74
2022/05/04 01:55:41;;;;;;;0.70;0.70;;;8.40;99.90;;;;;;5055704;28;20557;-73
2022/05/04 01:58:07;;;;;;;0.70;0.70;;;8.50;99.90;;;;;;5058188;28;20179;-74
2022/05/04 02:00:33;;;;;;;0.60;0.60;;;8.50;99.90;;;;;;5056115;28;20191;-74
2022/05/04 02:02:59;;;;;;;0.70;0.70;;;8.40;99.90;;;;;;5057709;28;20226;-73
2022/05/04 02:05:25;;;;;;;0.60;0.60;;;8.40;99.90;;;;;;5058976;28;20175;-73
2022/05/04 02:07:50;;;;;;;0.70;0.70;;;8.50;99.90;;;;;;5058118;28;20175;-73
2022/05/04 02:10:16;;;;;;;0.70;0.70;;;8.50;99.90;;;;;;5060557;28;20539;-74
2022/05/04 02:12:43;;;;;;;0.70;0.70;;;8.60;99.90;;;;;;5062165;28;20198;-74
2022/05/04 02:15:10;;;;;;;0.70;0.70;;;8.60;99.90;;;;;;5059657;28;20659;-75
2022/05/04 02:17:36;;;;;;;0.80;0.80;;;8.70;99.90;;;;;;5060688;28;20242;-76
2022/05/04 02:20:02;;;;;;;0.70;0.70;;;8.50;99.90;;;;;;5060513;28;20179;-74
2022/05/04 02:22:28;;;;;;;0.70;0.70;;;8.60;99.90;;;;;;5057480;28;20198;-74
2022/05/04 02:24:53;;;;;;;0.70;0.70;;;8.60;99.90;;;;;;5054228;28;20171;-74
2022/05/04 02:27:19;;;;;;;0.60;0.60;;;8.60;99.90;;;;;;5055390;28;20644;-75
2022/05/04 02:29:45;;;;;;;0.60;0.60;;;8.70;99.90;;;;;;5055264;28;20210;-75
2022/05/04 02:32:10;;;;;;;0.70;0.70;;;8.80;99.90;;;;;;5054738;28;20217;-75
2022/05/04 02:37:54;;;;;;;0.80;0.80;;;8.80;99.90;;;;;;5054249;28;20179;-75
2022/05/04 02:40:06;;;;;;;0.70;0.70;;;8.70;99.90;;;;;;5054012;28;20231;-75
2022/05/04 02:42:31;;;;;;;0.60;0.60;;;8.70;99.90;;;;;;5055912;28;20321;-74
2022/05/04 02:44:58;;;;;;;0.70;0.70;;;8.80;99.90;;;;;;5055934;28;20275;-75
2022/05/04 02:47:24;;;;;;;0.70;0.70;;;8.80;99.90;;;;;;5054961;28;20614;-76
2022/05/04 02:49:49;;;;;;;0.60;0.60;;;8.80;99.90;;;;;;5054354;28;20636;-75
2022/05/04 02:52:15;;;;;;;0.70;0.70;;;8.90;99.90;;;;;;5053945;28;20577;-74
2022/05/04 02:54:40;;;;;;;0.70;0.70;;;8.80;99.90;;;;;;5053461;28;20189;-74
2022/05/04 02:57:06;;;;;;;0.73;0.73;;;8.60;99.90;;;;;;5053577;28;20218;-75
2022/05/04 02:59:32;;;;;;;0.70;0.70;;;8.60;99.90;;;;;;5053230;28;20253;-74
2022/05/04 03:04:41;;;;;;;0.63;0.63;;;8.80;99.90;;;;;;5055999;28;20877;-74
2022/05/04 03:07:07;;;;;;;0.70;0.70;;;8.70;99.90;;;;;;5055657;28;20194;-73
2022/05/04 03:09:32;;;;;;;0.60;0.60;;;8.80;99.90;;;;;;5055486;28;20185;-74
2022/05/04 03:11:58;;;;;;;0.63;0.63;;;8.80;99.90;;;;;;5056278;28;20278;-74
2022/05/04 03:14:25;;;;;;;0.70;0.70;;;8.70;99.90;;;;;;5056073;28;20269;-74
2022/05/04 03:16:52;;;;;;;0.80;0.80;;;8.60;99.90;;;;;;5055720;28;20211;-74
2022/05/04 03:19:18;;;;;;;0.70;0.70;;;8.50;99.90;;;;;;5052865;28;20203;-74
2022/05/04 03:21:43;;;;;;;0.70;0.70;;;8.60;99.90;;;;;;5053232;28;20246;-74
2022/05/04 03:24:09;;;;;;;0.70;0.70;;;8.60;99.90;;;;;;5053124;28;20263;-74
2022/05/04 03:26:35;;;;;;;0.70;0.70;;;8.50;99.90;;;;;;5052986;28;20201;-74
2022/05/04 03:29:02;;;;;;;0.70;0.70;;;8.60;99.90;;;;;;5052718;28;20190;-74
2022/05/04 03:31:27;;;;;;;0.67;0.67;;;8.60;99.90;;;;;;5053091;28;20199;-74
2022/05/04 03:33:53;;;;;;;0.70;0.70;;;8.70;99.90;;;;;;5053137;28;20233;-74
2022/05/04 03:36:19;;;;;;;0.70;0.70;;;8.70;99.90;;;;;;5052820;28;20650;-74
2022/05/04 03:38:45;;;;;;;0.70;0.70;;;8.80;99.90;;;;;;5052634;28;20233;-74
2022/05/04 03:41:11;;;;;;;0.70;0.70;;;8.80;99.90;;;;;;5052281;28;20226;-74
2022/05/04 03:43:36;;;;;;;0.70;0.70;;;8.70;99.90;;;;;;5052610;28;20180;-74
2022/05/04 03:46:17;;;;;;;0.70;0.70;;;8.60;99.90;;;;;;5053282;28;20522;-74
2022/05/04 03:48:44;;;;;;;0.77;0.77;;;8.60;99.90;;;;;;5052539;28;20178;-74
2022/05/04 03:51:10;;;;;;;0.70;0.70;;;8.70;99.90;;;;;;5051906;28;20253;-74
2022/05/04 03:53:36;;;;;;;0.70;0.70;;;8.60;99.90;;;;;;5052343;28;20171;-73
2022/05/04 03:56:02;;;;;;;0.70;0.70;;;8.60;99.90;;;;;;5052325;28;20234;-75
2022/05/04 03:58:27;;;;;;;0.70;0.70;;;8.60;99.90;;;;;;5052412;28;20240;-74
2022/05/04 04:00:53;;;;;;;0.70;0.70;;;8.60;99.90;;;;;;5052117;28;20281;-74
2022/05/04 04:03:19;;;;;;;0.80;0.80;;;8.60;99.90;;;;;;5052251;28;20583;-74
2022/05/04 04:05:44;;;;;;;0.67;0.67;;;8.70;99.90;;;;;;5051288;28;20261;-74
2022/05/04 04:08:09;;;;;;;0.60;0.60;;;8.70;99.90;;;;;;5052312;28;20551;-74
2022/05/04 04:10:35;;;;;;;0.67;0.67;;;8.80;99.90;;;;;;5051470;28;20190;-74
2022/05/04 04:13:01;;;;;;;0.80;0.80;;;8.80;99.90;;;;;;5052291;28;20181;-74
2022/05/04 04:15:27;;;;;;;0.70;0.70;;;8.80;99.90;;;;;;5052145;28;20191;-74
2022/05/04 04:17:54;;;;;;;0.70;0.70;;;8.90;99.90;;;;;;5052135;28;20307;-74
2022/05/04 04:23:04;;;;;;;0.77;0.77;;;8.90;99.90;;;;;;5052372;28;20193;-74
2022/05/04 04:25:29;;;;;;;0.80;0.80;;;8.90;99.90;;;;;;5051854;28;20640;-74
2022/05/04 04:27:55;;;;;;;0.60;0.60;;;9.00;99.90;;;;;;5051488;28;20724;-75
2022/05/04 04:30:20;;;;;;;0.70;0.70;;;9.00;99.90;;;;;;5050987;28;20258;-74
2022/05/04 04:32:46;;;;;;;0.70;0.70;;;9.00;99.90;;;;;;5051238;28;20178;-74
2022/05/04 04:35:11;;;;;;;0.70;0.70;;;9.00;99.90;;;;;;5051374;28;20171;-74
2022/05/04 04:37:37;;;;;;;0.80;0.80;;;9.10;99.90;;;;;;5050859;28;20206;-74
2022/05/04 04:40:03;;;;;;;0.77;0.77;;;9.10;99.90;;;;;;5051183;28;20181;-74
2022/05/04 04:42:28;;;;;;;0.70;0.70;;;9.10;99.90;;;;;;5051361;28;20624;-74
2022/05/04 04:44:54;;;;;;;0.70;0.70;;;9.10;99.90;;;;;;5051850;28;20266;-74
2022/05/04 04:47:19;;;;;;;0.67;0.67;;;9.20;99.90;;;;;;5051888;28;20778;-75
2022/05/04 04:49:45;;;;;;;0.70;0.70;;;9.10;99.90;;;;;;5050947;28;20167;-74
2022/05/04 04:52:10;;;;;;;0.60;0.60;;;9.00;99.90;;;;;;5051059;28;20202;-74
2022/05/04 04:54:36;;;;;;;0.80;0.80;;;9.10;99.90;;;;;;5051297;28;20386;-75
2022/05/04 04:57:01;;;;;;;0.70;0.70;;;9.10;99.90;;;;;;5051124;28;20249;-75
2022/05/04 04:59:27;;;;;;;0.60;0.60;;;9.30;99.90;;;;;;5050801;28;20666;-74
2022/05/04 05:01:52;;;;;;;0.70;0.70;;;9.30;99.90;;;;;;5051045;28;20806;-74
2022/05/04 05:04:18;;;;;;;0.60;0.60;;;9.40;99.90;;;;;;5051235;28;20174;-74
2022/05/04 05:06:44;;;;;;;0.70;0.70;;;9.40;99.90;;;;;;5051065;28;20175;-74
2022/05/04 05:09:09;;;;;;;0.70;0.70;;;9.50;99.90;;;;;;5050855;28;20640;-73
2022/05/04 05:11:35;;;;;;;0.70;0.70;;;9.50;99.90;;;;;;5050538;28;20202;-74
2022/05/04 05:16:45;;;;;;;0.70;0.70;;;9.60;99.90;;;;;;5049122;28;20222;-74
2022/05/04 05:19:10;;;;;;;0.70;0.70;;;9.70;99.90;;;;;;5053928;28;20772;-74
2022/05/04 05:21:36;;;;;;;0.63;0.63;;;9.70;99.90;;;;;;5054689;28;20191;-74
2022/05/04 05:24:01;;;;;;;0.70;0.70;;;9.80;99.90;;;;;;5054451;28;20636;-74
2022/05/04 05:26:27;;;;;;;0.70;0.70;;;9.80;99.90;;;;;;5054333;28;20190;-75
2022/05/04 05:28:53;;;;;;;0.70;0.70;;;9.80;99.90;;;;;;5054030;28;20179;-74
2022/05/04 05:31:18;;;;;;;0.63;0.63;;;9.90;99.90;;;;;;5054256;28;20191;-74
2022/05/04 05:33:46;;;;;;;0.70;0.70;;;10.00;99.90;;;;;;5054175;28;20183;-74
2022/05/04 05:36:11;;;;;;;0.60;0.60;;;10.00;99.90;;;;;;5054299;28;20230;-74
2022/05/04 05:38:37;;;;;;;0.67;0.67;;;10.00;99.90;;;;;;5054361;28;20736;-74
2022/05/04 05:41:02;;;;;;;0.70;0.70;;;10.10;99.90;;;;;;5053974;28;20199;-74
2022/05/04 05:43:31;;;;;;;0.60;0.60;;;10.20;99.90;;;;;;5054068;28;20249;-74
2022/05/04 05:45:57;;;;;;;0.70;0.70;;;10.30;99.90;;;;;;5053877;28;20598;-74
2022/05/04 05:48:22;;;;;;;0.60;0.60;;;10.30;99.90;;;;;;5054296;28;20179;-73
2022/05/04 05:50:48;;;;;;;0.60;0.60;;;10.40;99.90;;;;;;5054066;28;20656;-74
2022/05/04 05:53:14;;;;;;;0.70;0.70;;;10.40;99.90;;;;;;5054345;28;20228;-74
2022/05/04 05:55:40;;;;;;;0.70;0.70;;;10.40;99.90;;;;;;5053379;28;20610;-73
2022/05/04 05:58:06;;;;;;;0.70;0.70;;;10.40;99.90;;;;;;5053671;28;20175;-74
2022/05/04 06:00:31;;;;;;;0.70;0.70;;;10.40;99.90;;;;;;5053962;28;20201;-74
2022/05/04 06:02:57;;;;;;;0.70;0.70;;;10.40;99.90;;;;;;5054267;28;20271;-74
2022/05/04 06:05:22;;;;;;;0.50;0.50;;;10.50;99.90;;;;;;5054518;28;20232;-75
2022/05/04 06:07:51;;;;;;;0.60;0.60;;;10.50;99.90;;;;;;5053985;28;20729;-73
2022/05/04 06:10:16;;;;;;;0.60;0.60;;;10.60;99.90;;;;;;5053490;28;20185;-74
2022/05/04 06:12:42;;;;;;;0.50;0.50;;;10.70;99.90;;;;;;5054307;28;20262;-74
2022/05/04 06:15:09;;;;;;;0.60;0.60;;;10.80;99.90;;;;;;5054067;28;20175;-74
2022/05/04 06:17:35;;;;;;;0.60;0.60;;;10.80;99.90;;;;;;5053022;28;20215;-74
2022/05/04 06:20:00;;;;;;;0.50;0.50;;;10.80;99.90;;;;;;5052933;28;20644;-74
2022/05/04 06:22:26;;;;;;;0.50;0.50;;;10.70;99.90;;;;;;5053795;28;20206;-74
2022/05/04 06:24:51;;;;;;;0.67;0.67;;;10.70;99.90;;;;;;5053196;28;20190;-74
2022/05/04 06:27:17;;;;;;;0.53;0.53;;;10.80;99.90;;;;;;5053169;28;20186;-74
2022/05/04 06:35:11;;;;;;;0.60;0.60;;;10.90;99.90;;;;;;5053161;28;20663;-74
2022/05/04 06:37:37;;;;;;;0.53;0.53;;;10.90;99.90;;;;;;5053551;28;20215;-74
2022/05/04 06:40:03;;;;;;;0.67;0.67;;;11.00;99.90;;;;;;5052785;28;20176;-74
2022/05/04 06:42:29;;;;;;;0.50;0.50;;;11.10;99.90;;;;;;5052956;28;20286;-74
2022/05/04 06:44:55;;;;;;;0.60;0.60;;;11.10;99.90;;;;;;5053300;28;20218;-74
2022/05/04 06:47:20;;;;;;;0.60;0.60;;;11.30;99.90;;;;;;5053148;28;20175;-74
2022/05/04 06:49:46;;;;;;;0.60;0.60;;;11.30;99.90;;;;;;5052184;28;20682;-75
2022/05/04 06:52:11;;;;;;;0.60;0.60;;;11.40;99.90;;;;;;5060544;28;20198;-74
2022/05/04 06:54:37;;;;;;;0.60;0.60;;;11.40;99.90;;;;;;5070877;28;20705;-74
2022/05/04 06:57:03;;;;;;;0.60;0.60;;;11.60;99.90;;;;;;5053774;28;20207;-74
2022/05/04 06:59:28;;;;;;;0.40;0.40;;;11.70;99.90;;;;;;5056719;28;20179;-74
2022/05/04 07:01:55;;;;;;;0.50;0.50;;;11.80;99.90;;;;;;5051298;28;20195;-72
2022/05/04 07:04:20;;;;;;;0.60;0.60;;;12.00;99.90;;;;;;5052639;28;20182;-74
2022/05/04 07:06:46;;;;;;;0.50;0.50;;;12.20;99.90;;;;;;5052536;28;20176;-73
2022/05/04 07:09:12;;;;;;;0.60;0.60;;;12.10;99.90;;;;;;5050059;28;20490;-73
2022/05/04 07:11:37;;;;;;;0.57;0.57;;;12.30;99.90;;;;;;5051129;28;20227;-75
2022/05/04 07:14:03;;;;;;;0.50;0.50;;;12.40;99.90;;;;;;5055060;28;20232;-73
2022/05/04 07:16:28;;;;;;;0.43;0.43;;;12.70;99.90;;;;;;5055395;28;20301;-73
2022/05/04 07:18:54;;;;;;;0.57;0.57;;;12.80;99.90;;;;;;5058640;28;20200;-73
2022/05/04 07:21:19;;;;;;;0.50;0.50;;;12.80;99.90;;;;;;5056040;28;20191;-73
2022/05/04 07:23:45;;;;;;;0.57;0.57;;;12.90;99.90;;;;;;5048937;28;20550;-73
2022/05/04 07:26:10;;;;;;;0.40;0.40;;;12.80;99.90;;;;;;5053992;28;20244;-74
2022/05/04 07:28:36;;;;;;;0.40;0.40;;;13.00;99.90;;;;;;5049121;28;20174;-74
2022/05/04 07:31:01;;;;;;;0.40;0.40;;;13.10;99.90;;;;;;5048280;28;20591;-74
2022/05/04 07:33:27;;;;;;;0.53;0.53;;;13.30;99.90;;;;;;5049862;28;20199;-75
2022/05/04 07:35:52;;;;;;;0.40;0.40;;;13.30;99.90;;;;;;5051072;28;20167;-73
2022/05/04 07:38:18;;;;;;;0.50;0.50;;;13.20;19.20;;;;;;5050291;28;20187;-74
2022/05/04 07:43:28;;;;;;;0.50;0.50;;;13.20;1.00;;;;;;5049324;28;20643;-75
2022/05/04 07:45:54;;;;;;;0.47;0.47;;;13.20;1.00;;;;;;5048962;28;20187;-76
2022/05/04 07:48:21;;;;;;;0.50;0.50;;;13.30;1.00;;;;;;5051798;28;20171;-75
2022/05/04 07:50:47;;;;;;;0.40;0.40;;;13.30;92.50;;;;;;5050853;28;20199;-74
2022/05/04 07:53:12;;;;;;;0.60;0.60;;;13.50;1.00;;;;;;5050563;28;20221;-75
2022/05/04 07:55:38;;;;;;;0.40;0.40;;;13.50;1.00;;;;;;5050047;28;20186;-75
2022/05/04 07:58:03;;;;;;;0.40;0.40;;;13.70;1.00;;;;;;5051830;28;20193;-75
2022/05/04 08:05:57;;;;;;;0.40;0.40;;;14.00;1.00;;;;;;5051495;28;20321;-75
2022/05/04 08:08:22;;;;;;;0.40;0.40;;;14.20;1.00;;;;;;5051976;28;20607;-76
2022/05/04 08:10:48;;;;;;;0.40;0.40;;;14.30;1.00;;;;;;5051797;28;20195;-78
2022/05/04 08:13:14;;;;;;;0.50;0.50;;;14.30;1.00;;;;;;5052970;28;20202;-76
2022/05/04 08:15:40;;;;;;;0.50;0.50;;;14.30;1.00;;;;;;5052480;28;20183;-77
2022/05/04 08:18:05;;;;;;;0.43;0.43;;;14.40;1.00;;;;;;5052904;28;20298;-76
2022/05/04 08:20:31;;;;;;;0.40;0.40;;;14.30;1.00;;;;;;5064479;28;20199;-76
2022/05/04 08:22:58;;;;;;;0.40;0.40;;;14.20;1.00;;;;;;5071729;28;20528;-76
2022/05/04 08:25:24;;;;;;;0.40;0.40;;;14.20;1.00;;;;;;5071811;28;20287;-76
2022/05/04 08:27:50;;;;;;;0.40;0.40;;;14.10;1.00;;;;;;5072272;28;20186;-76
2022/05/04 08:30:15;;;;;;;0.40;0.40;;;14.10;1.00;;;;;;5071451;28;20181;-76
2022/05/04 08:32:44;;;;;;;0.50;0.50;;;14.10;99.90;;;;;;5072504;28;20174;-76
2022/05/04 08:35:12;;;;;;;0.40;0.40;;;14.20;1.00;;;;;;5051523;28;20197;-77
2022/05/04 08:37:37;;;;;;;0.40;0.40;;;14.40;1.00;;;;;;5051833;28;20250;-77
2022/05/04 08:40:03;;;;;;;0.40;0.40;;;14.60;1.00;;;;;;5051623;28;20198;-77
2022/05/04 08:42:29;;;;;;;0.40;0.40;;;14.60;1.00;;;;;;5052080;28;20199;-77
2022/05/04 08:44:57;;;;;;;0.47;0.47;;;14.60;1.00;;;;;;5054213;28;20208;-77
2022/05/04 08:47:25;;;;;;;0.50;0.50;;;14.70;99.90;;;;;;5052197;28;20175;-77
2022/05/04 08:49:51;;;;;;;0.40;0.40;;;14.80;1.00;;;;;;5051502;28;20699;-76
2022/05/04 08:52:18;;;;;;;0.40;0.40;;;14.90;1.00;;;;;;5049489;28;20203;-77
2022/05/04 08:54:44;;;;;;;0.40;0.40;;;14.90;99.90;;;;;;5064356;28;20171;-77
2022/05/04 08:57:10;;;;;;;0.50;0.50;;;15.00;1.00;;;;;;5051714;28;20261;-76
2022/05/04 08:59:36;;;;;;;0.40;0.40;;;15.10;99.90;;;;;;5053773;28;20269;-77
2022/05/04 09:02:02;;;;;;;0.50;0.50;;;15.20;99.90;;;;;;5052227;28;20285;-76
2022/05/04 09:04:30;;;;;;;0.43;0.43;;;15.40;1.00;;;;;;5049771;28;20171;-76
2022/05/04 09:06:56;;;;;;;0.50;0.50;;;15.60;1.00;;;;;;5065891;28;20186;-76
2022/05/04 09:09:22;;;;;;;0.50;0.50;;;15.70;1.00;;;;;;5061293;28;20186;-77
2022/05/04 09:11:48;;;;;;;0.40;0.40;;;15.60;15.00;;;;;;5069832;28;20702;-76
2022/05/04 09:14:20;;;;;;;0.40;0.40;;;16.20;1.00;;;;;;5070116;28;20166;-77
2022/05/04 09:16:46;;;;;;;0.37;0.37;;;17.30;1.00;;;;;;5070770;28;20203;-77
2022/05/04 09:19:20;;;;;;;0.40;0.40;;;17.70;99.90;;;;;;5060351;28;20183;-76
2022/05/04 09:21:47;;;;;;;0.40;0.40;;;18.30;1.00;;;;;;5049021;28;20199;-75
2022/05/04 09:24:26;;;;;;;0.40;0.40;;;19.50;1.00;;;;;;5048565;28;20275;-75
2022/05/04 09:26:54;;;;;;;0.30;0.30;;;19.50;99.90;;;;;;5046211;28;20175;-75
2022/05/04 09:29:20;;;;;;;0.40;0.40;;;20.00;1.00;;;;;;5045965;28;20171;-75
2022/05/04 09:31:47;;;;;;;0.37;0.37;;;20.10;99.90;;;;;;5050908;28;21092;-75
2022/05/04 09:34:13;;;;;;;0.33;0.33;;;20.60;99.90;;;;;;5068582;28;20186;-75
2022/05/04 09:44:54;;;;;;;0.40;0.40;;;21.10;99.90;;;;;;5050073;28;20210;-75
2022/05/04 09:45:22;;;;;;;0.30;0.30;;;21.60;55.90;;;;;;5062167;28;20350;-76
2022/05/04 09:47:48;;;;;;;0.40;0.40;;;21.60;89.40;;;;;;5068543;28;20183;-76
2022/05/04 09:50:15;;;;;;;0.40;0.40;;;21.20;30.10;;;;;;5070449;28;20170;-76
2022/05/04 09:52:49;;;;;;;0.30;0.30;;;21.50;46.80;;;;;;5070862;28;20170;-76
2022/05/04 09:55:25;;;;;;;0.40;0.40;;;21.60;1.00;;;;;;5070712;28;20186;-76
2022/05/04 09:57:55;;;;;;;0.40;0.40;;;21.80;1.00;;;;;;5070788;28;20209;-76
2022/05/04 10:00:24;;;;;;;0.40;0.40;;;21.80;1.00;;;;;;5049152;28;20172;-75
2022/05/04 10:02:52;;;;;;;0.37;0.37;;;22.10;1.00;;;;;;5051528;28;20195;-74
2022/05/04 10:05:20;;;;;;;0.30;0.30;;;22.10;1.00;;;;;;5060798;28;20179;-74
2022/05/04 10:07:49;;;;;;;0.37;0.37;;;22.10;1.00;;;;;;5058852;28;20629;-75
2022/05/04 10:10:18;;;;;;;0.30;0.30;;;22.10;1.00;;;;;;5053609;28;20698;-75
2022/05/04 10:12:45;;;;;;;0.40;0.40;;;21.30;1.00;;;;;;5054145;28;20176;-75
2022/05/04 10:15:12;;;;;;;0.30;0.30;;;20.30;99.90;;;;;;5054158;28;20640;-74
2022/05/04 10:18:04;;;;;;;0.30;0.30;;;19.50;99.90;;;;;;5053941;28;20243;-75
2022/05/04 10:20:37;;;;;;;0.30;0.30;;;19.00;1.00;;;;;;5035542;28;20252;-75
2022/05/04 10:23:21;;;;;;;0.30;0.30;;;19.00;1.00;;;;;;5054000;28;20186;-75
2022/05/04 10:25:50;;;;;;;0.40;0.40;;;18.60;1.00;;;;;;5054315;28;20305;-75
2022/05/04 10:28:16;;;;;;;0.40;0.40;;;18.90;99.90;;;;;;5036125;28;20206;-75
2022/05/04 10:30:56;;;;;;;0.40;0.40;;;19.10;1.00;;;;;;5053643;28;20632;-76
2022/05/04 10:33:31;;;;;;;0.30;0.30;;;19.00;1.00;;;;;;5053853;28;20185;-75
2022/05/04 10:35:57;;;;;;;0.40;0.40;;;19.20;1.00;;;;;;5035790;28;20198;-75
2022/05/04 10:38:28;;;;;;;0.50;0.50;;;19.30;99.90;;;;;;5054016;28;20668;-76
2022/05/04 10:40:55;;;;;;;0.33;0.33;;;19.80;99.90;;;;;;5048170;28;20187;-77
2022/05/04 10:43:45;;;;;;;0.40;0.40;;;20.40;99.90;;;;;;5053510;28;20260;-75
2022/05/04 10:46:16;;;;;;;0.37;0.37;;;21.50;99.90;;;;;;5053409;28;20636;-75
2022/05/04 10:48:54;;;;;;;0.30;0.30;;;21.60;91.20;;;;;;5053768;28;20546;-75
2022/05/04 10:51:21;;;;;;;0.33;0.33;;;22.20;1.00;;;;;;5053758;28;20203;-76
2022/05/04 10:53:50;;;;;;;0.30;0.30;;;22.20;1.00;;;;;;5053776;28;20178;-76
2022/05/04 10:56:21;;;;;;;0.40;0.40;;;22.30;1.00;;;;;;5053767;28;20264;-76
2022/05/04 10:58:53;;;;;;;0.40;0.40;;;22.00;1.00;;;;;;5053386;28;20175;-76
2022/05/04 11:01:20;;;;;;;0.40;0.40;;;21.90;1.00;;;;;;5053146;28;20191;-76
2022/05/04 11:04:03;;;;;;;0.33;0.33;;;21.90;1.00;;;;;;5053391;28;20175;-75
2022/05/04 11:06:32;;;;;;;0.40;0.40;;;21.70;1.00;;;;;;5055625;28;20175;-76
2022/05/04 11:09:09;;;;;;;0.43;0.43;;;21.50;1.00;;;;;;5053184;28;20225;-77
2022/05/04 11:11:37;;;;;;;0.30;0.30;;;20.90;1.00;;;;;;5053427;28;20282;-76
2022/05/04 11:14:04;;;;;;;0.40;0.40;;;20.70;1.00;;;;;;5053163;28;20178;-75
2022/05/04 11:16:30;;;;;;;0.40;0.40;;;20.40;1.00;;;;;;5052875;28;20217;-76
2022/05/04 11:18:59;;;;;;;0.40;0.40;;;20.60;1.00;;;;;;5052001;28;20171;-77
2022/05/04 11:21:26;;;;;;;0.40;0.40;;;20.70;1.00;;;;;;5053446;28;20289;-77
2022/05/04 11:23:54;;;;;;;0.37;0.37;;;20.90;1.00;;;;;;5054465;28;20262;-77
2022/05/04 11:26:22;;;;;;;0.40;0.40;;;21.10;1.00;;;;;;5053898;28;20258;-76
2022/05/04 11:28:49;;;;;;;0.40;0.40;;;21.30;1.00;;;;;;5052626;28;20182;-77
2022/05/04 11:31:14;;;;;;;0.40;0.40;;;21.90;1.00;;;;;;5049382;28;20198;-77
2022/05/04 11:33:42;;;;;;;0.40;0.40;;;22.10;1.00;;;;;;5051728;28;20183;-77
2022/05/04 11:36:07;;;;;;;0.40;0.40;;;22.20;1.00;;;;;;5049061;28;20199;-76
2022/05/04 11:38:33;;;;;;;0.40;0.40;;;21.90;1.00;;;;;;5051577;28;20178;-76
2022/05/04 11:41:01;;;;;;;0.40;0.40;;;22.10;1.00;;;;;;5051657;28;20753;-76
2022/05/04 11:43:27;;;;;;;0.40;0.40;;;22.40;1.00;;;;;;5061890;28;20187;-75
2022/05/04 11:45:54;;;;;;;0.40;0.40;;;22.40;1.00;;;;;;5046631;28;20197;-75
2022/05/04 11:48:21;;;;;;;0.40;0.40;;;22.30;1.00;;;;;;5049498;28;20663;-75
2022/05/04 11:50:47;;;;;;;0.40;0.40;;;22.40;1.00;;;;;;5049614;28;20612;-76
2022/05/04 11:53:13;;;;;;;0.33;0.33;;;22.60;1.00;;;;;;5052571;28;20175;-75
2022/05/04 11:55:39;;;;;;;0.30;0.30;;;22.60;1.00;;;;;;5052455;28;20186;-76
2022/05/04 11:58:13;;;;;;;0.30;0.30;;;22.90;1.00;;;;;;5049587;28;20302;-76
2022/05/04 12:00:40;;;;;;;0.30;0.30;;;23.60;1.00;;;;;;5049177;28;20202;-76
2022/05/04 12:03:06;;;;;;;0.30;0.30;;;23.30;1.00;;;;;;5050213;28;20457;-76
2022/05/04 12:05:37;;;;;;;0.43;0.43;;;23.30;1.00;;;;;;5049649;28;20175;-76
2022/05/04 12:08:04;;;;;;;0.50;0.50;;;23.20;1.00;;;;;;5050067;28;20183;-76
2022/05/04 12:10:31;;;;;;;0.30;0.30;;;22.10;1.00;;;;;;5049387;28;20611;-75
2022/05/04 12:12:58;;;;;;;0.30;0.30;;;22.20;1.00;;;;;;5050279;28;20183;-75
2022/05/04 12:15:37;;;;;;;0.30;0.30;;;22.00;1.00;;;;;;5050551;28;20845;-76
2022/05/04 12:18:05;;;;;;;0.30;0.30;;;22.10;1.00;;;;;;5050464;28;20215;-76
2022/05/04 12:20:34;;;;;;;0.50;0.50;;;21.90;1.00;;;;;;5065959;28;20202;-75
2022/05/04 12:23:01;;;;;;;0.40;0.40;;;21.30;1.00;;;;;;5069867;28;20182;-75
2022/05/04 12:25:26;;;;;;;0.40;0.40;;;20.80;1.00;;;;;;5069491;28;20186;-75
2022/05/04 12:27:54;;;;;;;0.50;0.50;;;20.70;1.00;;;;;;5067842;28;20643;-75
2022/05/04 12:33:09;;;;;;;0.37;0.37;;;20.50;1.00;;;;;;5049394;28;20885;-77
2022/05/04 12:35:42;;;;;;;0.33;0.33;;;19.60;1.00;;;;;;5049321;28;20663;-78
2022/05/04 12:38:09;;;;;;;0.30;0.30;;;19.60;1.00;;;;;;5048640;28;20214;-78
2022/05/04 12:40:36;;;;;;;0.40;0.40;;;19.90;1.00;;;;;;5048120;28;20695;-77
2022/05/04 12:43:04;;;;;;;0.40;0.40;;;19.70;1.00;;;;;;5048706;28;20171;-77
2022/05/04 12:45:30;;;;;;;0.30;0.30;;;19.60;1.00;;;;;;5048845;28;20489;-77
2022/05/04 12:47:57;;;;;;;0.30;0.30;;;19.30;1.00;;;;;;5048696;28;20179;-76
2022/05/04 12:50:24;;;;;;;0.30;0.30;;;19.30;1.00;;;;;;5048665;28;20178;-76
2022/05/04 12:52:51;;;;;;;0.30;0.30;;;19.40;1.00;;;;;;5048209;28;20576;-76
2022/05/04 12:55:17;;;;;;;0.37;0.37;;;19.70;1.00;;;;;;5049923;28;20190;-76
2022/05/04 12:57:43;;;;;;;0.50;0.50;;;19.80;1.00;;;;;;5049805;28;20203;-77
2022/05/04 13:00:12;;;;;;;0.40;0.40;;;20.10;1.00;;;;;;5032382;28;20174;-77
2022/05/04 13:02:42;;;;;;;0.30;0.30;;;19.90;1.00;;;;;;5050777;28;20243;-77
2022/05/04 13:05:11;;;;;;;0.30;0.30;;;19.50;1.00;;;;;;5048961;28;20217;-77
2022/05/04 13:07:36;;;;;;;0.30;0.30;;;19.20;1.00;;;;;;5051203;28;20174;-77
2022/05/04 13:10:04;;;;;;;0.30;0.30;;;19.30;1.00;;;;;;5050732;28;20190;-76
2022/05/04 13:12:29;;;;;;;0.40;0.40;;;19.10;1.00;;;;;;5051004;28;20667;-76
2022/05/04 13:14:55;;;;;;;0.40;0.40;;;18.80;1.00;;;;;;5050390;28;20179;-77
2022/05/04 13:17:22;;;;;;;0.43;0.43;;;18.90;1.00;;;;;;5053675;28;20209;-77
2022/05/04 13:19:47;;;;;;;0.40;0.40;;;18.50;1.00;;;;;;5048091;28;20179;-76
2022/05/04 13:22:13;;;;;;;0.40;0.40;;;18.50;1.00;;;;;;5049475;28;20751;-77
2022/05/04 13:24:39;;;;;;;0.40;0.40;;;18.30;1.00;;;;;;5055723;28;20713;-76
2022/05/04 13:27:05;;;;;;;0.40;0.40;;;18.10;1.00;;;;;;5057208;28;20176;-77